Time;durP1;ratioP1;P1;durP2;ratioP2;P2;SDS_P1;SDS_P2;PMS_P1;PMS_P2;Temp;Humidity;BMP_temperature;BMP_pressure;BME280_temperature;BME280_humidity;BME280_pressure;Samples;Min_cycle;Max_cycle;Signal;HPM_P1;HPM_P2
2022/03/29 00:01:28;;;;;;;37.77;20.87;;;;;;;7.62;58.88;98331.61;2119778;82;21014;-82
2022/03/29 00:04:28;;;;;;;29.60;18.37;;;;;;;7.70;58.73;98326.53;2111924;83;20999;-82
2022/03/29 00:07:30;;;;;;;29.80;17.90;;;;;;;7.76;58.97;98326.63;2120708;84;20946;-82
2022/03/29 00:10:30;;;;;;;28.33;18.80;;;;;;;7.89;59.26;98327.70;2120120;84;20990;-82
2022/03/29 00:13:31;;;;;;;33.67;17.57;;;;;;;7.98;59.07;98317.44;2102140;83;21015;-82
2022/03/29 00:16:31;;;;;;;35.67;18.57;;;;;;;8.07;58.90;98318.86;2111335;84;20974;-80
2022/03/29 00:19:32;;;;;;;29.87;19.73;;;;;;;8.09;58.84;98314.98;2119326;83;20986;-84
2022/03/29 00:22:32;;;;;;;30.70;18.13;;;;;;;8.07;59.00;98311.48;2110752;84;21323;-82
2022/03/29 00:25:33;;;;;;;32.03;19.30;;;;;;;8.07;59.16;98299.79;2120629;84;20916;-83
2022/03/29 00:28:33;;;;;;;34.80;20.03;;;;;;;8.05;59.01;98296.30;2104217;84;20964;-82
2022/03/29 00:31:33;;;;;;;34.30;19.97;;;;;;;7.99;59.05;98288.87;2110914;84;20991;-83
2022/03/29 00:34:36;;;;;;;35.63;19.47;;;;;;;7.95;59.05;98285.78;2120580;84;21022;-82
2022/03/29 00:37:36;;;;;;;37.13;20.10;;;;;;;7.91;59.00;98279.22;2119595;84;20974;-83
2022/03/29 00:40:37;;;;;;;33.53;21.17;;;;;;;7.88;59.10;98273.98;2112147;84;20990;-84
2022/03/29 00:43:37;;;;;;;42.80;24.00;;;;;;;7.83;58.99;98271.75;2121079;84;20995;-84
2022/03/29 00:46:39;;;;;;;39.70;21.50;;;;;;;7.76;59.34;98272.48;2103376;84;20928;-84
2022/03/29 00:49:40;;;;;;;38.63;22.10;;;;;;;7.65;59.52;98251.13;2120085;84;21090;-83
2022/03/29 00:52:41;;;;;;;31.03;21.23;;;;;;;7.65;59.52;98251.13;2120917;84;20969;-84
2022/03/29 00:55:41;;;;;;;34.57;20.23;;;;;;;7.64;59.74;98249.81;2110438;84;20999;-81
2022/03/29 00:58:42;;;;;;;35.33;20.53;;;;;;;7.60;59.71;98261.88;2121465;83;20970;-83
2022/03/29 01:01:42;;;;;;;36.20;20.33;;;;;;;7.61;60.08;98249.77;2111414;82;21006;-83
2022/03/29 01:04:43;;;;;;;30.07;19.90;;;;;;;7.64;60.20;98250.69;2092585;84;21425;-83
2022/03/29 01:07:44;;;;;;;48.93;20.37;;;;;;;7.57;60.10;98262.27;2092316;85;20963;-83
2022/03/29 01:10:45;;;;;;;44.10;21.27;;;;;;;7.76;62.09;98258.20;2092265;85;21364;-84
2022/03/29 01:13:45;;;;;;;47.00;20.80;;;;;;;7.93;60.72;98262.80;2095696;85;21358;-84
2022/03/29 01:20:05;;;;;;;35.63;21.53;;;;;;;7.95;61.19;98269.31;2095494;85;20995;-83
2022/03/29 01:23:05;;;;;;;39.27;22.20;;;;;;;7.97;61.52;98263.28;2094001;84;20935;-83
2022/03/29 01:26:06;;;;;;;37.03;20.77;;;;;;;7.98;61.52;98258.53;2092533;85;20951;-81
2022/03/29 01:29:06;;;;;;;37.20;22.80;;;;;;;7.97;61.70;98252.02;2093071;85;20986;-83
2022/03/29 01:32:07;;;;;;;39.37;20.93;;;;;;;7.98;61.64;98255.94;2092551;85;20991;-80
2022/03/29 01:35:07;;;;;;;31.67;20.43;;;;;;;8.04;62.22;98260.33;2094438;85;21351;-83
2022/03/29 01:38:08;;;;;;;35.47;21.73;;;;;;;8.11;61.78;98258.25;2095768;84;20954;-81
2022/03/29 01:41:08;;;;;;;36.30;22.10;;;;;;;8.14;61.79;98245.30;2092556;85;20976;-81
2022/03/29 01:44:09;;;;;;;31.50;20.70;;;;;;;8.19;61.68;98243.62;2092716;85;20924;-82
2022/03/29 01:47:09;;;;;;;33.53;20.10;;;;;;;8.23;61.83;98233.70;2094420;85;20919;-83
2022/03/29 01:50:10;;;;;;;36.17;22.17;;;;;;;9.10;61.81;98238.50;2095927;84;20943;-83
2022/03/29 01:53:10;;;;;;;37.37;24.57;;;;;;;9.05;60.76;98233.69;2093104;84;20939;-84
2022/03/29 01:56:11;;;;;;;33.40;22.33;;;;;;;8.92;60.56;98219.70;2095548;85;21037;-83
2022/03/29 01:59:11;;;;;;;36.70;24.13;;;;;;;8.85;60.59;98224.41;2096484;84;21433;-84
2022/03/29 02:02:12;;;;;;;35.17;22.47;;;;;;;8.80;60.62;98225.23;2108205;83;21409;-80
2022/03/29 02:05:13;;;;;;;39.00;23.70;;;;;;;8.78;61.11;98220.44;2121363;84;21011;-82
2022/03/29 02:08:14;;;;;;;39.03;24.37;;;;;;;8.78;61.11;98220.44;2121585;84;21378;-80
2022/03/29 02:11:15;;;;;;;36.67;22.60;;;;;;;8.76;61.06;98220.43;2121014;84;20970;-83
2022/03/29 02:14:16;;;;;;;33.67;22.07;;;;;;;8.78;61.27;98229.12;2120972;84;20951;-84
2022/03/29 02:17:16;;;;;;;34.03;22.43;;;;;;;8.80;61.07;98227.84;2120987;84;20971;-83
2022/03/29 02:20:17;;;;;;;36.93;22.23;;;;;;;8.80;60.99;98220.03;2120833;84;21014;-82
2022/03/29 02:23:17;;;;;;;37.73;21.80;;;;;;;8.79;60.95;98211.34;2121784;84;20995;-84
2022/03/29 02:26:18;;;;;;;35.67;21.57;;;;;;;8.77;61.03;98213.06;2122141;84;20975;-84
2022/03/29 02:29:18;;;;;;;36.40;22.57;;;;;;;8.75;61.07;98210.01;2117554;84;20998;-82
2022/03/29 02:32:19;;;;;;;43.43;24.90;;;;;;;8.71;60.91;98201.30;2119991;84;20947;-82
2022/03/29 02:35:20;;;;;;;39.27;23.70;;;;;;;8.70;60.93;98201.29;2120372;84;20978;-81
2022/03/29 02:38:20;;;;;;;38.20;22.87;;;;;;;8.65;60.98;98185.61;2119750;84;20994;-81
2022/03/29 02:41:21;;;;;;;36.90;22.23;;;;;;;8.62;61.30;98189.48;2120386;84;21358;-82
2022/03/29 02:44:21;;;;;;;48.87;23.03;;;;;;;8.56;61.26;98189.42;2120000;84;21013;-83
2022/03/29 02:47:22;;;;;;;39.70;23.20;;;;;;;8.47;61.31;98186.31;2120700;83;21017;-83
2022/03/29 02:50:22;;;;;;;35.83;22.53;;;;;;;8.42;61.56;98172.81;2120255;84;21042;-81
2022/03/29 02:53:23;;;;;;;34.70;22.23;;;;;;;8.34;61.65;98172.74;2121206;84;20987;-82
2022/03/29 02:56:23;;;;;;;35.57;22.07;;;;;;;8.24;61.54;98173.05;2121581;84;20962;-82
2022/03/29 02:59:24;;;;;;;37.40;22.13;;;;;;;8.14;61.78;98171.20;2120837;84;20970;-82
2022/03/29 03:02:27;;;;;;;36.43;22.40;;;;;;;8.07;61.97;98171.13;2109182;83;21083;-82
2022/03/29 03:05:27;;;;;;;101.30;29.20;;;;;;;7.91;62.21;98164.45;2096077;83;20908;-83
2022/03/29 03:08:28;;;;;;;54.27;24.93;;;;;;;7.91;62.21;98164.45;2092844;85;20959;-83
2022/03/29 03:11:28;;;;;;;43.30;24.50;;;;;;;7.89;62.45;98160.97;2095486;85;20936;-82
2022/03/29 03:14:29;;;;;;;45.60;24.47;;;;;;;7.86;62.77;98161.36;2095273;85;20904;-82
2022/03/29 03:17:29;;;;;;;35.10;23.43;;;;;;;7.80;62.87;98161.25;2096252;85;20979;-82
2022/03/29 03:20:30;;;;;;;39.93;24.30;;;;;;;7.75;63.06;98155.13;2095475;85;20991;-82
2022/03/29 03:23:31;;;;;;;42.67;24.53;;;;;;;7.70;63.09;98159.40;2094963;84;21023;-83
2022/03/29 03:26:32;;;;;;;36.37;23.40;;;;;;;8.36;64.23;98159.75;2094229;84;21003;-84
2022/03/29 03:29:34;;;;;;;39.30;23.33;;;;;;;8.27;62.74;98156.17;2092814;85;21094;-84
2022/03/29 03:32:35;;;;;;;39.50;23.63;;;;;;;8.09;62.78;98154.69;2092587;84;21035;-81
2022/03/29 03:35:35;;;;;;;36.73;23.53;;;;;;;7.93;63.05;98156.67;2094967;85;20959;-83
2022/03/29 03:38:36;;;;;;;35.13;23.97;;;;;;;7.80;63.08;98156.06;2094967;84;21456;-83
2022/03/29 03:41:37;;;;;;;37.33;21.83;;;;;;;7.71;63.49;98152.92;2091157;85;21366;-84
2022/03/29 03:44:38;;;;;;;31.63;22.23;;;;;;;7.55;64.03;98139.31;2092203;84;21035;-84
2022/03/29 03:47:39;;;;;;;33.07;22.37;;;;;;;7.55;64.03;98139.31;2093702;85;21019;-82
2022/03/29 03:50:40;;;;;;;38.57;23.80;;;;;;;7.48;64.16;98137.06;2094837;84;21057;-83
2022/03/29 03:53:40;;;;;;;36.40;24.03;;;;;;;7.40;64.04;98132.20;2095031;84;20983;-83
2022/03/29 03:56:41;;;;;;;49.47;24.47;;;;;;;7.32;64.15;98129.92;2091607;85;20950;-82
2022/03/29 03:59:41;;;;;;;41.07;23.97;;;;;;;7.26;64.36;98131.14;2093361;85;20999;-82
2022/03/29 04:02:42;;;;;;;37.63;22.83;;;;;;;7.21;64.36;98125.89;2104907;84;20999;-82
2022/03/29 04:05:42;;;;;;;39.37;23.93;;;;;;;7.14;64.30;98130.97;2118326;84;21030;-82
2022/03/29 04:08:43;;;;;;;40.73;23.60;;;;;;;7.11;64.75;98140.02;2118306;84;20962;-85
2022/03/29 04:11:43;;;;;;;43.30;24.80;;;;;;;7.06;64.70;98133.89;2116468;84;20963;-83
2022/03/29 04:14:44;;;;;;;39.23;24.30;;;;;;;6.99;64.75;98138.98;2117928;84;20963;-82
2022/03/29 04:17:44;;;;;;;46.87;25.17;;;;;;;6.94;64.87;98141.07;2120682;83;21010;-83
2022/03/29 04:20:45;;;;;;;43.67;24.40;;;;;;;6.90;65.05;98152.22;2121838;84;21022;-83
2022/03/29 04:23:45;;;;;;;40.57;23.97;;;;;;;6.85;65.24;98159.93;2109472;83;21464;-83
2022/03/29 04:26:47;;;;;;;48.20;26.40;;;;;;;6.84;65.46;98166.39;2117669;84;20975;-83
2022/03/29 04:29:47;;;;;;;45.60;28.20;;;;;;;6.84;66.26;98172.88;2117418;84;21112;-83
2022/03/29 04:32:48;;;;;;;60.40;33.50;;;;;;;6.84;66.26;98172.88;2117302;84;21029;-82
2022/03/29 04:35:49;;;;;;;66.30;37.37;;;;;;;6.84;66.49;98171.58;2116971;84;21004;-85
2022/03/29 04:38:49;;;;;;;53.63;33.07;;;;;;;6.84;66.26;98165.97;2109419;84;21026;-83
2022/03/29 04:41:50;;;;;;;54.03;30.80;;;;;;;6.84;66.23;98163.38;2116830;83;20978;-84
2022/03/29 04:44:50;;;;;;;429.43;61.10;;;;;;;6.83;66.27;98159.03;2121959;83;21367;-83
2022/03/29 04:47:50;;;;;;;115.07;36.87;;;;;;;6.84;66.15;98156.88;2119085;84;21038;-84
2022/03/29 04:50:51;;;;;;;91.03;33.93;;;;;;;6.84;66.20;98155.59;2117449;84;21089;-84
2022/03/29 04:53:52;;;;;;;75.83;31.83;;;;;;;6.86;66.25;98156.91;2117178;84;21030;-84
2022/03/29 04:56:52;;;;;;;54.80;32.47;;;;;;;6.89;66.36;98161.72;2102758;84;21050;-85
2022/03/29 04:59:53;;;;;;;45.10;28.47;;;;;;;6.93;66.51;98164.81;2112030;83;21009;-82
2022/03/29 05:02:53;;;;;;;50.23;28.13;;;;;;;6.99;66.64;98164.06;2110268;84;21007;-83
2022/03/29 05:05:56;;;;;;;52.83;30.70;;;;;;;7.03;66.65;98155.05;2097902;84;21018;-83
2022/03/29 05:08:56;;;;;;;47.53;29.83;;;;;;;7.10;66.61;98161.63;2116404;84;20998;-84
2022/03/29 05:11:59;;;;;;;50.67;30.40;;;;;;;7.18;66.54;98163.91;2108620;83;20986;-84
2022/03/29 05:14:59;;;;;;;54.03;31.40;;;;;;;7.26;66.55;98164.46;2109011;83;21069;-83
2022/03/29 05:18:00;;;;;;;63.10;34.33;;;;;;;7.33;66.49;98160.23;2111438;83;21021;-83
2022/03/29 05:21:00;;;;;;;48.60;29.83;;;;;;;7.47;66.34;98161.28;2120117;83;21042;-83
2022/03/29 05:24:01;;;;;;;44.10;28.33;;;;;;;7.55;66.00;98154.46;2121145;83;21109;-83
2022/03/29 05:27:02;;;;;;;48.70;29.63;;;;;;;7.61;65.82;98157.56;2112449;83;21010;-83
2022/03/29 05:30:02;;;;;;;42.73;25.77;;;;;;;7.68;65.77;98165.88;2111515;84;21117;-84
2022/03/29 05:33:03;;;;;;;51.93;28.03;;;;;;;7.74;65.58;98163.78;2119380;84;20987;-82
2022/03/29 05:36:03;;;;;;;51.53;30.40;;;;;;;7.79;65.42;98166.00;2116944;84;21056;-83
2022/03/29 05:39:04;;;;;;;46.27;27.93;;;;;;;7.82;65.56;98175.17;2113964;84;21013;-83
2022/03/29 05:42:04;;;;;;;45.47;29.00;;;;;;;7.82;65.28;98179.06;2114602;84;21022;-81
2022/03/29 05:45:05;;;;;;;43.40;28.73;;;;;;;7.85;65.29;98185.17;2117734;83;20935;-84
2022/03/29 05:51:24;;;;;;;48.17;29.30;;;;;;;7.87;65.28;98200.35;2121309;84;21406;-82
2022/03/29 05:54:28;;;;;;;50.53;30.20;;;;;;;7.88;65.19;98200.80;2108948;83;20947;-83
2022/03/29 05:57:29;;;;;;;46.28;27.13;;;;;;;7.88;65.21;98203.40;2110407;84;21366;-83
2022/03/29 06:00:31;;;;;;;45.63;27.67;;;;;;;7.91;65.18;98211.23;2119118;83;21018;-81
2022/03/29 06:03:32;;;;;;;52.20;28.70;;;;;;;8.09;65.15;98214.90;2120750;84;21960;-83
2022/03/29 06:06:33;;;;;;;49.00;28.33;;;;;;;8.25;64.93;98215.09;2112837;84;21022;-83
2022/03/29 06:09:33;;;;;;;45.13;28.27;;;;;;;8.37;64.63;98212.20;2123474;84;21083;-84
2022/03/29 06:12:34;;;;;;;40.73;27.60;;;;;;;8.34;64.31;98216.08;2116874;83;20987;-84
2022/03/29 06:15:34;;;;;;;51.47;26.07;;;;;;;8.32;64.20;98219.92;2116404;84;20965;-84
2022/03/29 06:18:35;;;;;;;39.00;24.43;;;;;;;8.33;63.99;98215.60;2120627;83;21054;-84
2022/03/29 06:21:36;;;;;;;36.53;24.93;;;;;;;8.37;63.96;98214.81;2110717;83;21002;-84
2022/03/29 06:24:37;;;;;;;34.23;23.80;;;;;;;8.46;63.88;98216.20;2115223;84;21121;-85
2022/03/29 06:27:37;;;;;;;37.87;24.17;;;;;;;8.66;63.46;98228.98;2110953;84;21002;-82
2022/03/29 06:30:38;;;;;;;61.10;43.50;;;;;;;8.74;63.17;98219.98;2115008;83;21465;-81
2022/03/29 06:33:38;;;;;;;41.50;26.73;;;;;;;8.72;62.93;98226.89;2110121;84;22091;-81
2022/03/29 06:36:41;;;;;;;38.40;23.60;;;;;;;8.77;62.78;98226.08;2122211;84;20994;-81
2022/03/29 06:39:41;;;;;;;41.73;21.73;;;;;;;8.76;62.39;98226.94;2107436;84;21018;-81
2022/03/29 06:42:42;;;;;;;33.63;20.47;;;;;;;8.76;62.18;98229.54;2113477;83;21017;-80
2022/03/29 06:45:42;;;;;;;60.47;22.43;;;;;;;8.69;62.25;98230.77;2110179;84;21001;-82
2022/03/29 06:48:44;;;;;;;29.67;19.73;;;;;;;8.56;62.25;98240.15;2116322;84;21014;-80
2022/03/29 06:51:47;;;;;;;30.67;20.17;;;;;;;8.49;62.36;98239.22;2116859;84;21066;-82
2022/03/29 06:54:47;;;;;;;29.93;19.83;;;;;;;8.46;62.29;98236.58;2116393;84;21942;-82
2022/03/29 06:57:48;;;;;;;33.70;22.40;;;;;;;8.58;62.46;98241.91;2115420;84;21013;-80
2022/03/29 07:00:49;;;;;;;31.83;22.17;;;;;;;8.84;62.07;98234.81;2115346;84;20990;-81
2022/03/29 07:03:49;;;;;;;31.47;20.70;;;;;;;9.07;61.84;98235.00;2116422;84;22382;-80
2022/03/29 07:06:50;;;;;;;34.03;21.70;;;;;;;9.16;61.03;98228.56;2109190;83;21095;-82
2022/03/29 07:13:09;;;;;;;44.40;24.23;;;;;;;9.20;60.75;98223.83;2113725;83;21460;-80
2022/03/29 07:16:10;;;;;;;36.40;19.57;;;;;;;9.32;60.90;98216.09;2116161;84;21002;-80
2022/03/29 07:19:11;;;;;;;35.23;19.77;;;;;;;9.51;59.97;98224.47;2117631;84;20994;-79
2022/03/29 07:22:11;;;;;;;31.30;19.73;;;;;;;9.69;59.62;98224.17;2116093;84;21370;-80
2022/03/29 07:25:12;;;;;;;29.03;19.43;;;;;;;9.79;59.30;98223.35;2108976;83;21014;-81
2022/03/29 07:28:12;;;;;;;25.47;18.47;;;;;;;9.92;58.68;98224.28;2121304;84;20990;-81
2022/03/29 07:31:13;;;;;;;27.37;17.57;;;;;;;10.07;58.29;98217.83;2108292;83;21078;-81
2022/03/29 07:34:14;;;;;;;27.50;18.67;;;;;;;10.14;58.07;98211.33;2116132;84;21056;-82
2022/03/29 07:37:14;;;;;;;29.03;18.60;;;;;;;10.34;57.68;98206.64;2109396;84;21021;-81
2022/03/29 07:40:15;;;;;;;25.30;16.10;;;;;;;10.38;57.24;98217.09;2115633;84;21381;-83
2022/03/29 07:43:15;;;;;;;27.10;16.50;;;;;;;10.38;56.63;98213.61;2110146;83;21416;-84
2022/03/29 07:46:16;;;;;;;23.77;16.13;;;;;;;10.40;56.66;98212.78;2118489;84;20994;-82
2022/03/29 07:49:17;;;;;;;22.07;15.87;;;;;;;10.41;56.33;98216.26;2112673;84;21026;-84
2022/03/29 07:52:18;;;;;;;22.67;16.07;;;;;;;10.39;56.08;98216.22;2123660;84;21018;-79
2022/03/29 07:55:18;;;;;;;29.67;17.90;;;;;;;10.42;56.06;98212.78;2110997;83;21425;-81
2022/03/29 07:58:19;;;;;;;26.10;16.37;;;;;;;10.30;55.95;98209.67;2114759;84;21030;-81
2022/03/29 08:01:20;;;;;;;29.90;16.70;;;;;;;10.34;56.10;98209.25;2110176;84;21374;-81
2022/03/29 08:04:21;;;;;;;33.30;18.07;;;;;;;10.41;56.05;98200.60;2115276;83;21022;-80
2022/03/29 08:07:21;;;;;;;24.00;15.53;;;;;;;10.53;55.81;98200.63;2118322;84;20985;-80
2022/03/29 08:10:22;;;;;;;30.80;19.80;;;;;;;10.67;55.41;98206.73;2111008;84;21449;-79
2022/03/29 08:13:23;;;;;;;39.07;21.13;;;;;;;10.68;55.20;98199.78;2108901;84;20994;-78
2022/03/29 08:16:24;;;;;;;19.23;13.40;;;;;;;10.73;55.57;98197.61;2116077;84;21010;-79
2022/03/29 08:19:25;;;;;;;25.40;15.17;;;;;;;10.87;54.70;98196.75;2116901;84;21299;-79
2022/03/29 08:22:25;;;;;;;43.30;15.67;;;;;;;10.90;54.81;98193.70;2115956;84;20958;-79
2022/03/29 08:25:26;;;;;;;23.03;14.53;;;;;;;10.99;54.21;98208.50;2108262;83;21033;-79
2022/03/29 08:28:26;;;;;;;20.73;15.07;;;;;;;11.02;54.08;98200.23;2108874;84;21041;-77
2022/03/29 08:31:27;;;;;;;19.10;15.10;;;;;;;11.18;53.95;98198.48;2122140;84;21062;-78
2022/03/29 08:34:27;;;;;;;21.33;15.47;;;;;;;11.30;53.19;98202.84;2115739;84;21050;-79
2022/03/29 08:37:28;;;;;;;23.20;15.20;;;;;;;11.43;53.34;98201.52;2119163;84;20994;-79
2022/03/29 08:40:29;;;;;;;18.47;13.90;;;;;;;11.55;53.25;98195.40;2124519;84;21045;-79
2022/03/29 08:43:30;;;;;;;19.37;14.95;;;;;;;11.65;52.07;98191.02;2123902;84;21014;-78
2022/03/29 08:46:31;;;;;;;20.10;15.15;;;;;;;11.62;52.30;98189.28;2123499;84;21053;-79
2022/03/29 08:49:32;;;;;;;20.17;14.68;;;;;;;11.64;51.83;98189.27;2119130;84;20990;-76
2022/03/29 08:52:32;;;;;;;22.15;14.20;;;;;;;11.74;51.86;98197.09;2106924;83;20994;-81
2022/03/29 08:55:33;;;;;;;17.10;13.55;;;;;;;11.94;51.31;98189.64;2109323;83;21747;-80
2022/03/29 08:58:34;;;;;;;15.13;13.35;;;;;;;12.04;50.01;98187.41;2116083;84;21018;-83
2022/03/29 09:01:34;;;;;;;23.60;12.55;;;;;;;12.22;49.72;98176.02;2117382;84;20982;-84
2022/03/29 09:04:35;;;;;;;18.55;13.03;;;;;;;12.30;49.25;98177.72;2117457;84;21193;-80
2022/03/29 09:07:35;;;;;;;14.05;11.48;;;;;;;12.51;48.33;98165.38;2111506;83;21009;-78
2022/03/29 09:10:37;;;;;;;28.47;12.90;;;;;;;12.72;47.63;98166.53;2116268;84;21078;-81
2022/03/29 09:13:37;;;;;;;16.52;13.25;;;;;;;12.99;47.73;98161.08;2114287;83;21025;-80
2022/03/29 09:16:38;;;;;;;16.37;11.73;;;;;;;13.14;47.08;98162.72;2115990;84;21006;-78
2022/03/29 09:19:39;;;;;;;12.93;10.88;;;;;;;13.31;46.09;98158.66;2109187;84;21042;-84
2022/03/29 09:22:41;;;;;;;19.75;12.60;;;;;;;13.48;45.84;98148.87;2115934;84;21010;-79
2022/03/29 09:25:48;;;;;;;14.45;12.00;;;;;;;13.39;44.82;98168.19;2120585;83;21083;-84
2022/03/29 09:28:47;;;;;;;14.63;12.80;;;;;;;13.37;45.24;98161.22;2121077;84;21029;-80
2022/03/29 09:31:50;;;;;;;19.00;12.03;;;;;;;13.35;44.28;98149.44;2109952;83;21944;-83
2022/03/29 09:34:50;;;;;;;17.20;11.97;;;;;;;13.48;45.01;98154.11;2120580;83;21989;-83
2022/03/29 09:37:51;;;;;;;13.98;12.58;;;;;;;13.64;44.62;98151.75;2123546;84;20947;-83
2022/03/29 09:40:51;;;;;;;17.98;12.03;;;;;;;13.68;44.62;98150.83;2124745;84;20994;-84
2022/03/29 09:43:52;;;;;;;13.22;11.57;;;;;;;13.96;44.37;98148.77;2110245;83;20994;-83
2022/03/29 09:46:53;;;;;;;14.13;11.05;;;;;;;14.18;44.05;98143.23;2120329;84;21041;-83
2022/03/29 09:49:54;;;;;;;16.82;12.45;;;;;;;14.27;42.11;98138.72;2118057;84;21025;-83
2022/03/29 09:52:54;;;;;;;14.87;12.45;;;;;;;14.30;42.46;98143.93;2120534;84;21018;-83
2022/03/29 09:55:55;;;;;;;27.73;14.33;;;;;;;14.25;41.37;98133.07;2113660;84;21022;-81
2022/03/29 09:58:56;;;;;;;22.22;14.68;;;;;;;14.40;41.84;98127.59;2113770;83;21045;-82
2022/03/29 10:01:57;;;;;;;16.82;13.48;;;;;;;14.60;42.05;98117.69;2116890;84;20974;-80
2022/03/29 10:04:58;;;;;;;28.23;14.10;;;;;;;14.76;41.54;98123.59;2119227;83;21153;-81
2022/03/29 10:11:01;;;;;;;24.47;15.88;;;;;;;14.46;41.55;98120.98;2108515;84;21481;-78
2022/03/29 10:14:02;;;;;;;15.25;12.75;;;;;;;14.51;42.57;98115.20;2109471;84;21017;-84
2022/03/29 10:17:03;;;;;;;18.90;15.00;;;;;;;14.78;42.43;98107.81;2114112;84;21053;-84
2022/03/29 10:20:06;;;;;;;22.20;16.02;;;;;;;14.72;42.07;98116.63;2109102;83;20985;-85
2022/03/29 10:23:06;;;;;;;18.87;15.32;;;;;;;14.49;42.67;98119.62;2110258;83;21078;-86
2022/03/29 10:26:07;;;;;;;15.50;13.80;;;;;;;14.60;42.82;98111.13;2118569;84;21025;-85
2022/03/29 10:29:08;;;;;;;16.40;13.55;;;;;;;14.97;42.74;98102.22;2109485;84;20986;-84
2022/03/29 10:32:10;;;;;;;26.60;14.80;;;;;;;15.22;42.40;98101.33;2112777;83;21049;-81
2022/03/29 10:35:11;;;;;;;16.82;14.03;;;;;;;15.27;41.24;98090.72;2111567;83;21512;-86
2022/03/29 10:38:11;;;;;;;16.55;14.75;;;;;;;15.13;40.77;98094.05;2109616;83;20966;-86
2022/03/29 10:41:12;;;;;;;16.95;14.30;;;;;;;15.07;41.52;98092.41;2108548;83;21042;-86
2022/03/29 10:44:14;;;;;;;17.15;14.53;;;;;;;14.98;42.06;98087.31;2117170;84;20994;-85
2022/03/29 10:47:16;;;;;;;;;;;;;;;15.03;41.80;98074.95;2095616;84;21025;-85
2022/03/29 10:50:17;;;;;;;17.25;14.73;;;;;;;14.87;41.37;98076.99;2115673;84;20152;-85
2022/03/29 10:53:18;;;;;;;17.75;12.60;;;;;;;14.95;41.08;98079.48;2111333;84;21054;-86
2022/03/29 10:56:22;;;;;;;16.67;13.53;;;;;;;15.19;40.50;98073.78;2089439;84;21676;-85
2022/03/29 10:59:22;;;;;;;13.83;12.25;;;;;;;15.23;38.38;98080.71;2117283;84;21002;-84
2022/03/29 11:02:23;;;;;;;15.70;13.03;;;;;;;15.36;39.45;98069.52;2088303;84;20954;-85
2022/03/29 11:05:23;;;;;;;15.03;12.88;;;;;;;15.67;39.29;98077.72;2113725;84;21064;-85
2022/03/29 11:08:24;;;;;;;15.63;11.83;;;;;;;15.60;38.43;98068.19;2100929;84;20987;-85
2022/03/29 11:11:25;;;;;;;16.27;11.70;;;;;;;15.45;38.79;98068.47;2094985;84;21437;-85
2022/03/29 11:17:28;;;;;;;14.18;12.68;;;;;;;15.45;38.53;98065.83;2085546;83;21037;-83
2022/03/29 11:20:32;;;;;;;16.07;13.13;;;;;;;15.35;38.58;98065.15;2114414;84;21050;-84
2022/03/29 11:23:32;;;;;;;17.25;12.37;;;;;;;15.17;39.16;98057.17;2116530;84;21017;-84
2022/03/29 11:26:33;;;;;;;14.85;13.30;;;;;;;15.25;39.18;98062.28;2098373;84;20979;-84
2022/03/29 11:29:34;;;;;;;14.87;12.45;;;;;;;15.14;39.25;98060.30;2088624;85;21062;-84
2022/03/29 11:32:34;;;;;;;16.95;13.13;;;;;;;15.13;39.65;98043.66;2089651;85;20974;-83
2022/03/29 11:35:35;;;;;;;14.35;12.95;;;;;;;15.31;39.70;98046.38;2089712;84;20994;-84
2022/03/29 11:38:36;;;;;;;24.57;14.25;;;;;;;15.48;38.59;98046.05;2090981;84;21041;-83
2022/03/29 11:41:39;;;;;;;19.67;14.75;;;;;;;15.40;39.19;98047.96;2078343;85;21045;-83
2022/03/29 11:44:39;;;;;;;18.92;14.60;;;;;;;15.01;39.68;98042.58;2097238;84;21424;-85
2022/03/29 11:47:40;;;;;;;22.15;14.20;;;;;;;14.93;40.24;98031.34;2109576;84;21453;-83
2022/03/29 11:50:40;;;;;;;17.12;13.72;;;;;;;14.76;40.31;98034.28;2111357;84;21054;-82
2022/03/29 11:53:41;;;;;;;23.27;15.58;;;;;;;14.61;41.02;98031.44;2099236;84;20998;-83
2022/03/29 11:56:41;;;;;;;18.57;15.40;;;;;;;14.62;41.28;98035.80;2104558;84;20966;-84
2022/03/29 11:59:42;;;;;;;24.85;16.42;;;;;;;14.46;41.58;98038.27;2117697;84;21480;-82
2022/03/29 12:02:43;;;;;;;19.75;15.20;;;;;;;14.35;42.30;98041.03;2105785;84;20998;-82
2022/03/29 12:05:44;;;;;;;20.97;16.32;;;;;;;14.09;42.91;98035.77;2107894;84;21327;-83
2022/03/29 12:11:47;;;;;;;22.87;16.07;;;;;;;13.69;44.03;98034.98;2089789;84;21052;-83
2022/03/29 12:14:49;;;;;;;22.73;15.23;;;;;;;13.61;44.25;98042.09;2117155;83;21066;-84
2022/03/29 12:17:49;;;;;;;21.80;16.82;;;;;;;13.58;44.31;98032.95;2116311;84;21057;-85
2022/03/29 12:20:50;;;;;;;18.12;16.12;;;;;;;13.54;44.54;98038.67;2089733;84;21019;-82
2022/03/29 12:23:50;;;;;;;22.20;16.65;;;;;;;13.59;44.34;98029.00;2088717;85;21006;-84
2022/03/29 12:26:51;;;;;;;23.80;16.25;;;;;;;13.62;44.28;98021.53;2089584;85;21054;-82
2022/03/29 12:29:51;;;;;;;25.12;17.52;;;;;;;13.59;44.39;98020.27;2089535;85;21044;-84
2022/03/29 12:32:52;;;;;;;24.20;17.45;;;;;;;13.50;44.62;98015.14;2097471;84;21017;-85
2022/03/29 12:35:52;;;;;;;21.33;16.20;;;;;;;13.47;44.71;98013.42;2109413;84;21046;-81
2022/03/29 12:38:56;;;;;;;27.22;21.15;;;;;;;13.54;44.87;98012.45;2107363;84;21417;-84
2022/03/29 12:41:56;;;;;;;27.25;19.87;;;;;;;13.58;44.93;98011.53;2108189;84;21053;-84
2022/03/29 12:44:57;;;;;;;22.85;17.65;;;;;;;13.48;45.24;98014.30;2114458;84;20982;-82
2022/03/29 12:47:58;;;;;;;25.25;18.15;;;;;;;13.37;45.51;98011.36;2107073;84;21358;-84
2022/03/29 12:51:04;;;;;;;25.82;17.27;;;;;;;13.10;45.75;98011.66;2109784;84;21058;-82
2022/03/29 12:54:03;;;;;;;24.18;17.55;;;;;;;12.94;46.62;98010.06;2089770;85;21062;-81
2022/03/29 12:57:04;;;;;;;24.98;18.62;;;;;;;12.83;48.39;98002.77;2099308;84;21354;-81
2022/03/29 13:00:04;;;;;;;33.38;19.55;;;;;;;12.54;51.51;98010.91;2117205;84;21641;-86
2022/03/29 13:03:05;;;;;;;27.13;19.07;;;;;;;12.27;50.91;98010.71;2107593;84;20974;-83
2022/03/29 13:06:08;;;;;;;22.55;18.02;;;;;;;11.98;52.89;98017.00;2103285;84;21106;-84
2022/03/29 13:09:09;;;;;;;25.95;18.80;;;;;;;11.71;52.36;98006.69;2109918;84;21003;-83
2022/03/29 13:12:11;;;;;;;24.93;18.47;;;;;;;11.61;53.23;98011.09;2110048;83;21026;-81
2022/03/29 13:15:11;;;;;;;34.60;19.53;;;;;;;11.47;54.13;98010.30;2116169;83;21060;-82
2022/03/29 13:18:12;;;;;;;21.43;16.50;;;;;;;11.38;55.39;98015.14;2112488;84;21022;-83
2022/03/29 13:21:13;;;;;;;29.50;21.77;;;;;;;11.32;55.94;98007.77;2121551;84;21006;-83
2022/03/29 13:24:15;;;;;;;30.97;21.43;;;;;;;11.18;57.33;98007.79;2116324;84;21046;-84
2022/03/29 13:27:17;;;;;;;31.23;21.13;;;;;;;11.20;57.38;98011.70;2118140;83;21827;-81
2022/03/29 13:30:17;;;;;;;29.17;16.80;;;;;;;11.22;57.45;98000.81;2123960;84;21144;-83
2022/03/29 13:33:20;;;;;;;25.30;18.33;;;;;;;11.24;56.39;97992.53;2101658;84;21099;-83
2022/03/29 13:36:20;;;;;;;24.17;18.07;;;;;;;11.40;57.53;97991.17;2108241;84;21073;-83
2022/03/29 13:39:21;;;;;;;29.00;19.73;;;;;;;11.56;56.68;97982.81;2118051;84;21061;-85
2022/03/29 13:42:21;;;;;;;28.00;19.23;;;;;;;11.62;56.73;97982.77;2111608;84;21330;-84
2022/03/29 13:45:22;;;;;;;33.87;22.93;;;;;;;11.69;56.55;97973.15;2108778;83;21049;-84
2022/03/29 13:48:22;;;;;;;28.53;19.50;;;;;;;11.77;56.81;97964.81;2109685;83;20986;-84
2022/03/29 13:51:23;;;;;;;34.33;21.17;;;;;;;11.87;55.46;97959.98;2122823;84;21057;-85
2022/03/29 13:54:23;;;;;;;38.53;25.00;;;;;;;12.00;55.51;97958.14;2122118;84;21010;-84
2022/03/29 13:57:24;;;;;;;27.05;20.65;;;;;;;12.10;54.44;97959.80;2116508;84;20966;-84
2022/03/29 14:00:24;;;;;;;32.48;22.42;;;;;;;11.98;53.49;97950.30;2119401;83;21002;-81
2022/03/29 14:03:25;;;;;;;28.47;20.43;;;;;;;12.00;53.57;97952.47;2117912;84;21002;-85
2022/03/29 14:06:25;;;;;;;25.05;18.60;;;;;;;12.03;53.96;97946.34;2117560;84;21116;-82
2022/03/29 14:09:26;;;;;;;27.27;18.37;;;;;;;12.03;52.85;97938.50;2116752;84;21041;-83
2022/03/29 14:12:27;;;;;;;25.40;17.73;;;;;;;11.86;52.49;97950.84;2117026;84;21013;-83
2022/03/29 14:15:27;;;;;;;23.40;17.83;;;;;;;11.76;53.20;97945.64;2116100;84;21053;-82